Time;durP1;ratioP1;P1;durP2;ratioP2;P2;SDS_P1;SDS_P2;PMS_P1;PMS_P2;Temp;Humidity;BMP_temperature;BMP_pressure;BME280_temperature;BME280_humidity;BME280_pressure;Samples;Min_cycle;Max_cycle;Signal;HPM_P1;HPM_P2
2022/10/05 05:03:43;;;;;;;16.55;7.80;;;;;;;14.51;89.46;101436.38;5031717;28;20186;-76
2022/10/05 05:06:25;;;;;;;11.57;7.63;;;;;;;14.49;89.33;101428.31;5051930;28;20044;-76
2022/10/05 05:09:32;;;;;;;13.77;7.10;;;;;;;14.51;89.56;101419.47;5047358;28;20037;-76
2022/10/05 05:12:20;;;;;;;14.85;7.70;;;;;;;14.49;89.63;101410.63;5019091;22;20015;-76
2022/10/05 05:15:03;;;;;;;18.25;8.73;;;;;;;14.52;89.35;101415.44;5046704;28;20472;-76
2022/10/05 05:17:51;;;;;;;12.32;7.95;;;;;;;14.50;89.39;101415.03;5037122;28;21987;-76
2022/10/05 05:20:23;;;;;;;16.23;8.68;;;;;;;14.43;89.39;101407.34;4987848;28;20041;-76
2022/10/05 05:23:01;;;;;;;14.48;8.45;;;;;;;14.49;89.68;101411.41;5032772;28;20037;-76
2022/10/05 05:25:55;;;;;;;14.10;8.70;;;;;;;14.47;90.13;101401.75;5031149;28;20045;-76
2022/10/05 05:28:35;;;;;;;15.40;8.55;;;;;;;14.48;89.54;101406.16;5034842;28;20037;-76
2022/10/05 05:31:29;;;;;;;13.52;8.70;;;;;;;14.44;89.75;101406.97;5034758;28;20025;-76
2022/10/05 05:34:10;;;;;;;17.30;9.95;;;;;;;14.47;89.63;101418.66;5023095;28;20333;-76
2022/10/05 05:36:42;;;;;;;18.10;8.82;;;;;;;14.47;89.21;101413.81;5040720;28;20526;-76
2022/10/05 05:39:20;;;;;;;13.35;9.05;;;;;;;14.48;88.69;101415.41;5031144;28;20048;-76
2022/10/05 05:41:54;;;;;;;14.32;9.25;;;;;;;14.47;89.03;101407.38;5034513;28;20032;-76
2022/10/05 05:44:24;;;;;;;15.70;9.65;;;;;;;14.49;88.96;101404.97;5021192;28;20033;-75
2022/10/05 05:47:01;;;;;;;14.50;8.98;;;;;;;14.46;88.84;101411.38;5036535;28;20511;-75
2022/10/05 05:49:40;;;;;;;14.70;9.10;;;;;;;14.46;88.86;101409.38;5043319;28;20020;-76
2022/10/05 05:52:14;;;;;;;13.48;8.50;;;;;;;14.46;88.55;101398.09;5042621;28;20543;-75
2022/10/05 05:54:44;;;;;;;12.80;8.32;;;;;;;14.47;89.12;101393.31;5039556;28;20483;-76
2022/10/05 05:57:18;;;;;;;12.93;8.30;;;;;;;14.46;89.39;101386.03;5037351;28;20534;-76
2022/10/05 06:00:19;;;;;;;13.40;9.30;;;;;;;14.41;89.25;101395.66;5041659;28;20373;-76
2022/10/05 06:02:49;;;;;;;12.55;8.43;;;;;;;14.42;88.90;101389.66;5037727;28;20104;-76
2022/10/05 06:05:43;;;;;;;11.55;8.48;;;;;;;14.42;89.21;101389.66;5045841;28;20047;-76
2022/10/05 06:08:32;;;;;;;12.73;9.18;;;;;;;14.46;88.93;101400.13;5032170;28;20182;-76
2022/10/05 06:11:03;;;;;;;19.63;9.05;;;;;;;14.44;88.98;101398.50;5045165;28;20070;-76
2022/10/05 06:13:34;;;;;;;14.73;8.70;;;;;;;14.44;88.76;101400.50;5050644;28;20044;-75
2022/10/05 06:16:24;;;;;;;13.80;8.50;;;;;;;14.43;88.57;101398.91;5036815;28;20032;-76
2022/10/05 06:19:12;;;;;;;11.25;7.80;;;;;;;14.43;88.64;101401.72;5038809;28;20457;-75
2022/10/05 06:21:46;;;;;;;14.80;8.07;;;;;;;14.44;88.37;101409.78;5046997;28;20031;-76
2022/10/05 06:24:25;;;;;;;14.00;7.95;;;;;;;14.45;88.40;101413.41;5059561;28;20033;-77
2022/10/05 06:26:51;;;;;;;10.32;7.70;;;;;;;14.46;87.96;101415.00;5039559;28;20061;-76
2022/10/05 06:29:22;;;;;;;10.90;7.80;;;;;;;14.48;88.36;101408.97;5038930;28;20111;-76
2022/10/05 06:32:03;;;;;;;11.75;6.80;;;;;;;14.47;88.06;101425.09;5046943;28;20029;-76
2022/10/05 06:34:31;;;;;;;15.57;7.40;;;;;;;14.48;87.58;101414.63;5035231;28;20028;-76
2022/10/05 06:37:06;;;;;;;8.98;6.22;;;;;;;14.50;87.69;101423.47;5041429;28;20036;-76
2022/10/05 06:39:54;;;;;;;10.27;6.30;;;;;;;14.48;88.02;101421.06;5041462;28;20017;-77
2022/10/05 06:42:57;;;;;;;8.45;6.00;;;;;;;14.49;87.86;101428.31;5038253;28;20025;-78
2022/10/05 06:46:04;;;;;;;9.93;7.15;;;;;;;14.49;88.33;101428.31;5040060;28;20384;-78
2022/10/05 06:49:07;;;;;;;8.13;5.65;;;;;;;14.48;88.45;101425.88;5014502;28;20045;-77
2022/10/05 06:51:47;;;;;;;9.90;6.45;;;;;;;14.48;89.06;101434.34;5008298;28;20044;-78
2022/10/05 06:54:35;;;;;;;10.13;6.95;;;;;;;14.50;88.03;101429.13;5016855;28;20403;-78
2022/10/05 06:57:03;;;;;;;8.65;6.32;;;;;;;14.50;88.80;101429.13;5038799;28;20514;-78
2022/10/05 07:00:00;;;;;;;14.25;7.38;;;;;;;14.51;88.96;101430.75;5044566;28;20495;-78
2022/10/05 07:02:52;;;;;;;10.00;7.10;;;;;;;14.49;89.33;101427.50;5038915;28;20033;-77
2022/10/05 07:05:42;;;;;;;11.68;6.97;;;;;;;14.51;89.74;101437.19;5040566;28;20120;-78
2022/10/05 07:08:14;;;;;;;9.60;6.13;;;;;;;14.49;89.32;101433.94;5022708;28;20020;-78
2022/10/05 07:10:46;;;;;;;;;;;;;;;14.52;89.24;101433.16;5041259;28;20056;-78
2022/10/05 07:14:02;;;;;;;10.18;7.20;;;;;;;14.52;88.90;101426.72;5041544;28;19923;-77
2022/10/05 07:16:45;;;;;;;10.65;7.05;;;;;;;14.54;89.26;101436.38;5044535;28;20550;-78
2022/10/05 07:19:35;;;;;;;12.35;7.47;;;;;;;14.56;89.42;101441.66;5044258;28;20024;-78
2022/10/05 07:22:25;;;;;;;12.18;7.85;;;;;;;14.57;89.29;101441.28;5041675;28;20031;-78
2022/10/05 07:25:00;;;;;;;11.95;7.25;;;;;;;14.55;90.06;101431.59;5039381;28;20402;-77
2022/10/05 07:27:33;;;;;;;12.20;7.43;;;;;;;14.57;89.43;101427.19;5041430;28;20028;-78
2022/10/05 07:29:58;;;;;;;;;;;;;;;14.56;89.16;101421.94;5037257;28;20028;-77
2022/10/05 07:32:55;;;;;;;10.95;7.45;;;;;;;14.58;89.10;101425.19;5043499;28;20444;-78
2022/10/05 07:38:22;;;;;;;;;;;;;;;14.63;88.61;101424.81;5040498;28;20082;-78
2022/10/05 07:40:53;;;;;;;10.50;6.13;;;;;;;14.70;89.03;101416.41;5042208;28;20435;-78
2022/10/05 07:43:44;;;;;;;11.80;7.00;;;;;;;14.75;88.71;101413.22;5041747;28;20110;-78
2022/10/05 07:46:20;;;;;;;10.23;6.35;;;;;;;14.73;88.79;101421.25;5033722;28;20037;-79
2022/10/05 07:49:07;;;;;;;11.70;6.63;;;;;;;14.73;88.59;101414.81;5042472;28;20021;-79
2022/10/05 07:51:37;;;;;;;13.73;6.60;;;;;;;14.67;89.09;101405.91;5039203;28;20050;-78
2022/10/05 07:54:17;;;;;;;10.63;7.45;;;;;;;14.73;88.67;101412.78;5031251;28;20044;-78
2022/10/05 07:57:12;;;;;;;9.88;6.18;;;;;;;14.74;88.82;101400.34;5038154;28;20047;-78
2022/10/05 07:59:47;;;;;;;9.85;6.18;;;;;;;14.70;88.49;101407.97;5015309;28;20379;-78
2022/10/05 08:02:22;;;;;;;10.23;6.93;;;;;;;14.75;88.33;101407.56;5037454;28;20064;-78
2022/10/05 08:04:56;;;;;;;9.63;6.25;;;;;;;14.81;88.41;101405.19;5029932;28;20400;-78
2022/10/05 08:07:22;;;;;;;12.23;5.65;;;;;;;14.81;88.11;101405.19;5053926;28;20056;-79
2022/10/05 08:09:58;;;;;;;8.45;5.80;;;;;;;14.88;87.83;101407.25;5040444;28;20399;-79
2022/10/05 08:12:26;;;;;;;7.72;5.55;;;;;;;14.90;87.97;101402.81;5044158;28;20047;-79
2022/10/05 08:14:56;;;;;;;9.27;5.82;;;;;;;14.90;88.36;101390.75;5044856;28;20373;-79
2022/10/05 08:17:51;;;;;;;7.90;5.72;;;;;;;14.96;87.18;101406.06;5037437;28;20471;-78
2022/10/05 08:20:34;;;;;;;6.32;5.40;;;;;;;14.93;87.39;101379.50;5040678;28;20021;-78
2022/10/05 08:23:23;;;;;;;8.73;5.50;;;;;;;15.01;86.03;101385.94;5043827;28;20108;-78
2022/10/05 08:26:13;;;;;;;7.45;4.97;;;;;;;15.01;85.40;101391.59;5042751;28;20074;-78
2022/10/05 08:28:45;;;;;;;7.38;5.00;;;;;;;15.08;85.81;101390.84;5029914;28;20480;-78
2022/10/05 08:31:20;;;;;;;;;;;;;;;15.06;85.50;101385.59;5039109;28;20036;-78
2022/10/05 08:34:02;;;;;;;7.95;4.97;;;;;;;15.13;85.72;101391.25;5033822;28;19913;-78
2022/10/05 08:36:54;;;;;;;8.90;5.00;;;;;;;15.10;85.66;101389.22;5042922;28;20538;-78
2022/10/05 08:39:23;;;;;;;10.25;5.47;;;;;;;15.13;84.88;101382.78;5040515;28;20434;-79
2022/10/05 08:42:26;;;;;;;10.70;5.45;;;;;;;15.14;84.70;101384.41;5044884;28;20036;-79
2022/10/05 08:45:06;;;;;;;7.05;4.57;;;;;;;15.19;84.95;101381.19;5043131;28;20071;-79
2022/10/05 08:47:35;;;;;;;7.82;4.88;;;;;;;15.20;85.00;101368.72;5042268;28;20060;-78
2022/10/05 08:50:30;;;;;;;5.82;4.20;;;;;;;15.21;84.43;101373.16;5034373;28;20022;-79
2022/10/05 08:53:11;;;;;;;6.43;4.07;;;;;;;15.15;84.84;101374.72;5041658;28;20017;-79
2022/10/05 08:55:42;;;;;;;7.30;5.13;;;;;;;15.28;84.59;101375.19;5031942;28;20453;-77
2022/10/05 08:58:26;;;;;;;7.40;4.80;;;;;;;15.27;84.45;101372.78;5043450;28;20093;-78
2022/10/05 09:01:03;;;;;;;10.25;4.85;;;;;;;15.22;85.35;101371.13;5038985;28;20041;-78
2022/10/05 09:03:35;;;;;;;8.20;4.90;;;;;;;15.27;84.96;101379.22;5043435;28;20035;-78
2022/10/05 09:06:18;;;;;;;6.25;4.90;;;;;;;15.24;85.53;101383.66;5037408;28;20155;-78
2022/10/05 09:08:55;;;;;;;8.13;5.30;;;;;;;15.24;84.77;101377.19;5032870;28;20047;-78
2022/10/05 09:11:35;;;;;;;8.65;5.45;;;;;;;15.28;84.82;101363.09;5032285;28;20028;-78
2022/10/05 09:14:13;;;;;;;8.02;4.60;;;;;;;15.29;84.88;101362.72;5025285;28;20053;-79
2022/10/05 09:17:16;;;;;;;7.60;4.68;;;;;;;15.34;85.17;101364.31;5022618;28;20063;-79
2022/10/05 09:19:54;;;;;;;6.85;4.97;;;;;;;15.32;84.53;101361.09;5023148;28;20358;-78
2022/10/05 09:22:39;;;;;;;7.93;4.75;;;;;;;15.31;84.62;101351.03;5019561;28;20033;-78
2022/10/05 09:25:22;;;;;;;7.65;5.32;;;;;;;15.32;84.10;101352.63;5011680;28;20025;-76
2022/10/05 09:27:55;;;;;;;6.78;4.88;;;;;;;15.41;83.40;101353.03;5016536;28;20402;-79
2022/10/05 09:30:20;;;;;;;;;;;;;;;15.42;84.23;101349.03;5023786;28;20079;-79
2022/10/05 09:33:13;;;;;;;7.27;4.90;;;;;;;15.45;84.35;101349.06;5014298;28;20411;-78
2022/10/05 09:36:03;;;;;;;6.10;4.80;;;;;;;15.48;83.95;101347.44;5019067;28;20323;-77
2022/10/05 09:38:31;;;;;;;8.95;5.57;;;;;;;15.49;83.73;101340.56;5026180;28;20088;-79
2022/10/05 09:41:00;;;;;;;6.70;5.10;;;;;;;15.49;84.37;101339.78;5018640;28;20036;-78
2022/10/05 09:44:04;;;;;;;10.48;5.32;;;;;;;15.46;84.30;101332.91;5035695;28;20045;-78
2022/10/05 09:46:43;;;;;;;8.40;6.00;;;;;;;15.52;83.68;101328.50;5018578;28;20053;-77
2022/10/05 09:49:29;;;;;;;9.32;5.53;;;;;;;15.48;83.63;101327.69;5022686;28;20033;-79
2022/10/05 09:52:07;;;;;;;7.68;6.50;;;;;;;15.51;82.47;101331.72;5027229;28;20541;-79
2022/10/05 09:54:32;;;;;;;9.93;6.00;;;;;;;15.56;82.78;101332.13;5028938;28;20544;-79
2022/10/05 09:57:06;;;;;;;7.25;5.57;;;;;;;15.54;82.90;101334.56;5026408;28;20116;-78
2022/10/05 10:00:04;;;;;;;9.60;6.45;;;;;;;15.60;84.13;101332.13;5036111;28;20388;-78
2022/10/05 10:03:01;;;;;;;8.95;5.85;;;;;;;15.59;82.87;101325.66;5021867;28;20116;-78
2022/10/05 10:05:32;;;;;;;7.95;5.57;;;;;;;15.65;81.98;101329.72;5024926;28;20037;-79
2022/10/05 10:08:13;;;;;;;5.80;5.05;;;;;;;15.69;82.09;101323.28;5014823;28;20065;-78
2022/10/05 10:10:56;;;;;;;6.28;5.43;;;;;;;15.72;82.88;101316.84;5025515;28;20022;-79
2022/10/05 10:13:44;;;;;;;6.55;4.80;;;;;;;15.70;82.43;101324.88;5042443;28;20101;-78
2022/10/05 10:16:39;;;;;;;7.38;4.68;;;;;;;15.84;81.59;101307.97;5027349;28;20035;-78
2022/10/05 10:19:18;;;;;;;9.95;4.97;;;;;;;15.87;80.31;101312.00;5055809;28;20067;-77
2022/10/05 10:22:02;;;;;;;8.93;5.18;;;;;;;15.94;80.38;101323.28;5043849;28;20031;-79
2022/10/05 10:24:51;;;;;;;12.40;5.57;;;;;;;15.91;81.81;101319.25;5035025;28;20028;-79
2022/10/05 10:27:46;;;;;;;9.93;6.55;;;;;;;15.98;81.04;101307.16;5042952;28;20429;-79
2022/10/05 10:30:27;;;;;;;7.90;5.90;;;;;;;16.16;79.42;101321.25;4964593;28;20042;-78
2022/10/05 10:33:12;;;;;;;10.05;6.13;;;;;;;16.07;79.79;101303.94;5036113;28;20033;-79
2022/10/05 10:35:57;;;;;;;7.30;5.88;;;;;;;16.20;79.49;101307.94;5032264;28;20029;-79
2022/10/05 10:38:39;;;;;;;9.85;6.35;;;;;;;16.12;78.80;101301.47;5038729;28;20039;-78
2022/10/05 10:41:22;;;;;;;5.03;4.50;;;;;;;16.21;79.18;101303.88;5025698;28;20134;-78
2022/10/05 10:44:01;;;;;;;;;;;;;;;16.28;79.08;101303.88;5035281;28;20377;-78
2022/10/05 10:46:45;;;;;;;8.13;4.47;;;;;;;16.30;79.31;101295.81;5045489;28;19916;-79
2022/10/05 10:49:42;;;;;;;5.95;3.80;;;;;;;16.31;78.58;101291.75;5033089;28;20032;-78
2022/10/05 10:52:24;;;;;;;7.78;4.32;;;;;;;16.32;79.14;101296.22;5047053;28;20472;-78
2022/10/05 10:55:05;;;;;;;9.68;3.95;;;;;;;16.40;78.65;101299.81;5034989;28;20039;-79
2022/10/05 10:58:03;;;;;;;5.43;3.85;;;;;;;16.42;79.28;101305.84;5030428;28;20029;-78
2022/10/05 11:00:49;;;;;;;6.40;4.10;;;;;;;16.33;78.35;101294.97;5038702;28;20025;-79
2022/10/05 11:03:38;;;;;;;5.00;3.63;;;;;;;16.36;79.48;101299.00;5040179;28;20455;-78
2022/10/05 11:06:16;;;;;;;7.15;4.47;;;;;;;16.39;80.19;101293.34;5042442;28;20044;-78
2022/10/05 11:09:17;;;;;;;5.65;4.20;;;;;;;16.38;80.52;101291.75;5036466;28;20365;-79
2022/10/05 11:11:59;;;;;;;5.63;4.63;;;;;;;16.40;79.28;101317.59;5027595;28;20129;-79
2022/10/05 11:14:45;;;;;;;8.23;4.78;;;;;;;16.37;78.90;101301.44;5037990;28;20737;-78
2022/10/05 11:17:16;;;;;;;6.47;4.53;;;;;;;16.40;79.33;101308.28;5038905;28;20582;-78
2022/10/05 11:20:30;;;;;;;7.63;4.57;;;;;;;16.36;79.98;101287.72;5039395;28;20057;-78
2022/10/05 11:23:32;;;;;;;6.78;4.65;;;;;;;16.37;80.28;101289.34;5018726;28;20508;-78
2022/10/05 11:26:19;;;;;;;5.97;4.40;;;;;;;16.33;80.16;101280.84;5041601;28;20499;-79
2022/10/05 11:29:16;;;;;;;7.82;4.85;;;;;;;16.34;80.55;101279.66;5040200;28;20471;-80
2022/10/05 11:31:53;;;;;;;11.52;5.93;;;;;;;16.38;80.44;101293.75;5043550;28;20025;-78
2022/10/05 11:34:37;;;;;;;10.10;5.15;;;;;;;16.37;81.02;101278.03;5041297;28;20551;-78
2022/10/05 11:37:36;;;;;;;10.02;4.88;;;;;;;16.40;80.74;101278.03;5048270;28;20040;-80
2022/10/05 11:40:47;;;;;;;5.15;3.95;;;;;;;16.37;81.69;101280.84;5031884;28;20033;-78
2022/10/05 11:43:31;;;;;;;9.18;5.32;;;;;;;16.36;80.80;101285.72;5034083;28;20025;-78
2022/10/05 11:46:12;;;;;;;8.77;5.20;;;;;;;16.34;81.87;101279.66;5049436;28;20134;-77
2022/10/05 11:48:38;;;;;;;10.48;5.60;;;;;;;16.32;81.29;101270.78;5038721;28;20496;-80
2022/10/05 11:51:40;;;;;;;7.35;5.63;;;;;;;16.26;82.92;101278.06;5038068;28;20127;-79
2022/10/05 11:54:08;;;;;;;10.75;5.63;;;;;;;16.30;82.33;101273.22;5029959;28;20079;-80
2022/10/05 11:56:55;;;;;;;7.57;5.32;;;;;;;16.30;82.80;101264.75;5041843;28;20040;-80
2022/10/05 11:59:38;;;;;;;7.00;5.50;;;;;;;16.26;82.33;101261.13;5032775;28;20057;-79
2022/10/05 12:02:38;;;;;;;13.18;5.97;;;;;;;16.32;81.83;101275.59;5038094;28;20021;-80
2022/10/05 12:05:34;;;;;;;12.02;5.95;;;;;;;16.27;81.86;101259.88;5043365;28;20047;-80
2022/10/05 12:08:25;;;;;;;7.30;5.22;;;;;;;16.25;82.48;101262.31;5026918;28;20116;-80
2022/10/05 12:11:16;;;;;;;6.40;5.68;;;;;;;16.23;82.44;101247.78;5043450;28;20536;-80
2022/10/05 12:14:01;;;;;;;7.88;5.18;;;;;;;16.31;82.55;101246.56;5030106;28;20488;-80
2022/10/05 12:16:40;;;;;;;8.20;5.60;;;;;;;16.28;84.14;101247.41;5041540;28;20471;-80
2022/10/05 12:19:15;;;;;;;10.35;5.05;;;;;;;16.40;82.99;101255.44;5043346;28;20031;-80
2022/10/05 12:21:46;;;;;;;8.73;5.28;;;;;;;16.47;82.37;101237.63;5046887;28;20052;-80
2022/10/05 12:24:20;;;;;;;9.63;6.13;;;;;;;16.46;83.00;101248.13;5041471;28;20394;-79
2022/10/05 12:26:57;;;;;;;6.95;5.07;;;;;;;16.42;82.36;101236.03;5037870;28;20052;-79
2022/10/05 12:29:39;;;;;;;9.95;4.97;;;;;;;16.46;81.65;101241.66;5040458;28;20776;-79
2022/10/05 12:32:10;;;;;;;17.85;6.57;;;;;;;16.42;82.94;101238.03;5040189;28;20029;-78
2022/10/05 12:35:04;;;;;;;8.98;5.03;;;;;;;16.45;81.82;101235.22;5053879;28;20029;-79
2022/10/05 12:37:41;;;;;;;5.35;4.03;;;;;;;16.41;82.60;101237.25;5037355;28;20033;-80
2022/10/05 12:40:18;;;;;;;5.63;4.82;;;;;;;16.51;82.40;101235.59;5040188;28;20032;-79
2022/10/05 12:43:01;;;;;;;10.73;4.28;;;;;;;16.55;81.27;101232.75;5033875;28;20040;-79
2022/10/05 12:45:45;;;;;;;9.15;4.68;;;;;;;16.55;82.54;101227.91;5038223;28;20686;-80
2022/10/05 12:48:28;;;;;;;8.95;4.22;;;;;;;16.71;81.99;101232.28;5037174;28;20440;-79
2022/10/05 12:51:08;;;;;;;5.20;4.30;;;;;;;16.69;81.79;101215.72;5036618;28;20107;-80
2022/10/05 12:53:53;;;;;;;6.80;4.45;;;;;;;16.70;80.52;101223.00;5040296;28;20044;-80
2022/10/05 12:56:28;;;;;;;7.57;4.22;;;;;;;16.74;81.52;101225.78;5042186;28;20025;-80
2022/10/05 12:59:13;;;;;;;7.60;5.07;;;;;;;16.77;80.80;101239.91;5044569;28;20534;-80
2022/10/05 13:01:45;;;;;;;5.53;4.18;;;;;;;16.83;80.46;101224.16;5039610;28;20048;-80
2022/10/05 13:04:17;;;;;;;6.68;4.63;;;;;;;16.79;80.96;101216.88;5040284;28;20464;-78
2022/10/05 13:07:13;;;;;;;13.63;4.57;;;;;;;16.78;81.25;101209.59;5038691;28;20048;-80
2022/10/05 13:09:47;;;;;;;5.40;4.57;;;;;;;16.80;81.31;101219.34;5042175;28;20095;-80
2022/10/05 13:12:34;;;;;;;6.47;4.30;;;;;;;16.92;80.52;101212.38;5040743;28;20021;-79
2022/10/05 13:15:23;;;;;;;8.50;4.55;;;;;;;17.03;80.33;101206.66;5042027;28;20115;-80
2022/10/05 13:18:23;;;;;;;11.85;4.95;;;;;;;17.09;80.49;101199.34;5040022;28;20432;-80
2022/10/05 13:20:57;;;;;;;10.52;4.35;;;;;;;17.11;79.44;101208.22;5040208;28;20468;-80
2022/10/05 13:23:38;;;;;;;7.60;4.45;;;;;;;17.22;79.01;101203.31;5040604;28;20420;-80
2022/10/05 13:26:12;;;;;;;4.63;4.03;;;;;;;17.23;77.75;101193.56;5039583;28;20037;-80
2022/10/05 13:29:02;;;;;;;6.68;4.82;;;;;;;17.12;77.75;101204.19;5040963;28;20086;-80
2022/10/05 13:31:53;;;;;;;7.40;4.78;;;;;;;17.20;77.19;101204.91;5044260;28;20069;-80
2022/10/05 13:34:32;;;;;;;5.60;4.97;;;;;;;17.03;79.53;101204.66;5043006;28;20044;-78
2022/10/05 13:37:04;;;;;;;7.18;4.95;;;;;;;17.09;77.97;101205.00;5039578;28;20033;-79
2022/10/05 13:40:05;;;;;;;7.63;4.45;;;;;;;17.21;77.93;101195.22;5041219;28;20030;-78
2022/10/05 13:43:02;;;;;;;6.47;5.85;;;;;;;17.20;77.89;101200.09;5044771;28;20083;-80
2022/10/05 13:45:39;;;;;;;9.13;6.18;;;;;;;17.12;79.41;101192.03;5049240;28;20029;-80
2022/10/05 13:48:47;;;;;;;7.70;5.05;;;;;;;17.21;78.67;101196.03;5036877;28;20102;-79
2022/10/05 13:51:38;;;;;;;8.05;4.32;;;;;;;17.21;78.21;101195.22;5045439;28;20159;-78
2022/10/05 13:54:23;;;;;;;9.25;4.78;;;;;;;17.18;78.01;101196.03;5043697;28;20032;-80
2022/10/05 13:56:55;;;;;;;9.23;4.85;;;;;;;17.12;78.19;101198.53;5041824;28;20048;-81
2022/10/05 13:59:37;;;;;;;8.35;4.72;;;;;;;17.17;78.99;101200.91;5019752;28;20041;-80
2022/10/05 14:02:11;;;;;;;5.45;4.95;;;;;;;17.13;80.54;101191.63;5042939;28;20036;-80
2022/10/05 14:04:49;;;;;;;10.25;5.20;;;;;;;17.15;78.89;101191.22;5049272;28;20472;-80
2022/10/05 14:07:37;;;;;;;7.40;5.32;;;;;;;17.08;80.18;101192.09;5042078;28;20037;-80
2022/10/05 14:10:10;;;;;;;8.73;4.85;;;;;;;17.13;79.96;101188.81;5045200;28;20526;-80
2022/10/05 14:12:38;;;;;;;;;;;;;;;17.12;79.88;101192.03;5026395;28;20080;-80
2022/10/05 14:15:19;;;;;;;7.85;4.60;;;;;;;17.19;79.04;101184.31;5043519;28;19923;-80
2022/10/05 14:17:45;;;;;;;8.75;4.50;;;;;;;17.23;78.87;101170.16;5036160;28;20049;-78
2022/10/05 14:20:22;;;;;;;8.93;4.93;;;;;;;17.27;79.13;101182.25;5040048;28;20033;-80
2022/10/05 14:23:01;;;;;;;8.38;5.00;;;;;;;17.30;79.26;101169.28;5042944;28;20128;-81
2022/10/05 14:25:28;;;;;;;7.40;4.28;;;;;;;17.28;79.38;101161.19;5047010;28;20040;-80
2022/10/05 14:28:02;;;;;;;8.23;4.72;;;;;;;17.32;79.48;101169.66;5043765;28;20133;-80
2022/10/05 14:30:29;;;;;;;7.13;5.18;;;;;;;17.46;78.58;101172.38;5043035;28;20016;-80
2022/10/05 14:33:11;;;;;;;8.10;4.45;;;;;;;17.46;78.16;101173.16;5038585;28;20059;-79
2022/10/05 14:35:48;;;;;;;6.50;4.80;;;;;;;17.39;78.51;101161.94;5041437;28;20090;-80
2022/10/05 14:38:30;;;;;;;6.18;4.78;;;;;;;17.49;78.18;101171.53;5036324;28;20490;-80
2022/10/05 14:41:14;;;;;;;;;;;;;;;17.45;78.04;101167.91;5046481;28;20029;-80
2022/10/05 14:44:08;;;;;;;7.80;4.72;;;;;;;17.53;77.91;101163.81;5043123;28;20352;-79
2022/10/05 14:46:35;;;;;;;11.93;4.55;;;;;;;17.51;77.48;101163.41;5024820;28;20503;-80
2022/10/05 14:49:11;;;;;;;5.70;4.85;;;;;;;17.53;78.97;101160.97;5028143;28;20032;-80
2022/10/05 14:51:37;;;;;;;7.82;5.07;;;;;;;17.52;79.62;101167.88;5039125;28;20530;-79
2022/10/05 14:54:24;;;;;;;9.77;6.57;;;;;;;17.36;79.51;101170.44;5046261;28;20029;-80
2022/10/05 14:57:08;;;;;;;6.78;6.10;;;;;;;17.35;78.75;101171.66;5015394;28;20033;-80
2022/10/05 15:00:16;;;;;;;7.28;5.55;;;;;;;17.31;80.61;101177.34;5047570;28;20475;-79
2022/10/05 15:03:15;;;;;;;6.95;5.47;;;;;;;17.24;80.92;101189.53;5034245;28;20115;-79
2022/10/05 15:05:54;;;;;;;6.47;5.13;;;;;;;17.21;80.72;101179.03;5036203;28;20029;-79
2022/10/05 15:08:47;;;;;;;7.50;5.00;;;;;;;17.24;79.73;101191.53;5026424;28;20120;-79
2022/10/05 15:11:30;;;;;;;8.07;6.03;;;;;;;17.23;81.08;101193.56;5054242;28;20028;-80
2022/10/05 15:13:57;;;;;;;7.35;5.50;;;;;;;17.20;81.19;101185.94;5038829;28;20468;-78
2022/10/05 15:16:32;;;;;;;7.50;4.47;;;;;;;17.17;80.55;101209.38;5054570;28;20029;-80
2022/10/05 15:19:19;;;;;;;8.52;4.55;;;;;;;17.13;80.21;101197.28;5039815;28;20036;-77
2022/10/05 15:21:44;;;;;;;9.88;4.35;;;;;;;17.17;80.67;101189.59;5030265;28;20052;-78
2022/10/05 15:24:23;;;;;;;8.25;4.82;;;;;;;17.17;79.82;101200.91;5035777;28;20516;-78
2022/10/05 15:26:57;;;;;;;7.60;4.20;;;;;;;17.17;80.04;101205.75;5039105;28;20082;-78
2022/10/05 15:29:37;;;;;;;5.85;3.97;;;;;;;17.15;81.54;101202.53;5021842;28;20035;-76
2022/10/05 15:32:21;;;;;;;10.30;4.22;;;;;;;17.16;79.85;101221.94;5045015;28;20430;-78
2022/10/05 15:35:23;;;;;;;7.00;3.70;;;;;;;17.16;77.80;101212.63;5038715;28;20029;-77
2022/10/05 15:38:15;;;;;;;6.53;3.88;;;;;;;17.20;76.49;101217.06;5039959;28;20020;-78
2022/10/05 15:41:13;;;;;;;7.22;3.55;;;;;;;17.23;75.18;101207.72;5029803;28;20116;-78
2022/10/05 15:43:49;;;;;;;7.88;3.45;;;;;;;17.20;76.96;101207.75;5036673;28;20033;-77
2022/10/05 15:46:16;;;;;;;4.90;3.30;;;;;;;17.02;77.68;101207.88;5011716;28;20033;-78
2022/10/05 15:48:48;;;;;;;3.78;3.45;;;;;;;17.06;76.02;101217.16;5017991;28;20035;-78
2022/10/05 15:51:21;;;;;;;4.25;3.25;;;;;;;17.03;77.09;101212.31;5048118;28;20043;-77
2022/10/05 15:57:13;;;;;;;8.38;4.78;;;;;;;16.97;77.47;101219.63;5032529;28;20663;-76
2022/10/05 15:59:47;;;;;;;6.25;3.40;;;;;;;16.93;75.74;101225.31;5035803;28;20029;-76
2022/10/05 16:02:22;;;;;;;6.43;3.13;;;;;;;16.94;78.12;101220.47;5034450;28;20455;-78
2022/10/05 16:05:18;;;;;;;7.15;4.30;;;;;;;16.90;76.55;101214.81;5040515;28;20441;-77
2022/10/05 16:10:42;;;;;;;4.30;3.13;;;;;;;16.94;77.11;101203.50;5041920;28;20048;-77
2022/10/05 16:13:27;;;;;;;6.73;2.97;;;;;;;16.89;74.35;101218.06;5037976;28;20186;-78
2022/10/05 16:16:15;;;;;;;6.45;3.28;;;;;;;16.89;75.71;101213.22;5036859;28;20029;-77
2022/10/05 16:19:09;;;;;;;5.55;3.05;;;;;;;16.87;75.74;101218.50;5037734;28;21912;-77
2022/10/05 16:21:45;;;;;;;5.63;3.20;;;;;;;16.86;75.45;101214.03;5018762;28;20424;-76
2022/10/05 16:24:37;;;;;;;4.18;3.67;;;;;;;16.83;76.54;101209.22;5035953;28;20029;-78
2022/10/05 16:27:31;;;;;;;7.05;3.60;;;;;;;16.83;75.65;101220.53;5042302;28;20028;-76
2022/10/05 16:30:10;;;;;;;6.72;4.07;;;;;;;16.79;76.82;101217.69;5031456;28;20580;-77
2022/10/05 16:32:48;;;;;;;6.70;3.70;;;;;;;16.84;77.82;101222.94;5038722;28;20097;-76
2022/10/05 16:35:43;;;;;;;5.68;4.10;;;;;;;16.77;77.39;101222.94;5034396;28;20048;-76
2022/10/05 16:38:37;;;;;;;5.57;3.40;;;;;;;16.76;77.80;101221.34;5033994;28;20017;-78
2022/10/05 16:41:22;;;;;;;6.32;3.65;;;;;;;16.73;79.48;101224.19;5033974;28;20025;-78
2022/10/05 16:44:05;;;;;;;8.30;4.90;;;;;;;16.77;76.78;101222.16;5032414;28;20037;-78
2022/10/05 16:46:38;;;;;;;5.90;4.00;;;;;;;16.74;77.14;101229.44;5035215;28;20037;-77
2022/10/05 16:49:06;;;;;;;;;;;;;;;16.74;79.24;101228.59;5038919;28;20384;-77
2022/10/05 16:51:58;;;;;;;8.43;4.05;;;;;;;16.69;77.50;101246.00;5027004;28;20518;-78
2022/10/05 16:54:30;;;;;;;5.05;3.20;;;;;;;16.73;77.55;101239.13;5031908;28;20036;-78
2022/10/05 16:57:17;;;;;;;5.28;3.22;;;;;;;16.68;76.62;101242.38;5021883;28;20503;-77
2022/10/05 17:00:05;;;;;;;9.07;3.58;;;;;;;16.70;79.10;101234.31;5034820;28;20043;-78
2022/10/05 17:02:39;;;;;;;11.70;3.42;;;;;;;16.73;77.37;101244.78;5028430;28;20032;-77
2022/10/05 17:05:43;;;;;;;3.67;3.28;;;;;;;16.65;77.75;101243.19;5031438;28;20044;-77
2022/10/05 17:08:32;;;;;;;7.47;4.03;;;;;;;16.64;77.07;101241.59;5042797;28;20036;-77
2022/10/05 17:11:20;;;;;;;7.10;3.53;;;;;;;16.62;78.17;101250.47;5037203;28;20025;-77
2022/10/05 17:14:15;;;;;;;7.28;3.78;;;;;;;16.61;76.96;101259.38;5033245;28;20049;-77
2022/10/05 17:16:51;;;;;;;11.80;4.60;;;;;;;16.58;77.47;101252.50;5028620;28;20480;-77
2022/10/05 17:19:36;;;;;;;3.97;3.00;;;;;;;16.59;76.29;101245.66;5029411;28;20029;-76
2022/10/05 17:22:11;;;;;;;6.28;2.60;;;;;;;16.60;76.59;101247.25;5037155;28;20055;-78
2022/10/05 17:24:55;;;;;;;3.95;2.78;;;;;;;16.54;76.58;101248.91;5015799;28;20173;-78
2022/10/05 17:27:46;;;;;;;3.33;2.97;;;;;;;16.55;77.67;101255.34;5027835;28;20028;-76
2022/10/05 17:30:30;;;;;;;6.13;2.88;;;;;;;16.55;76.21;101263.81;5031768;28;20588;-77
2022/10/05 17:33:16;;;;;;;6.85;3.47;;;;;;;16.49;78.33;101262.66;5021296;28;20029;-76
2022/10/05 17:35:51;;;;;;;5.05;2.97;;;;;;;16.49;77.70;101257.81;5022487;28;20033;-78
2022/10/05 17:38:22;;;;;;;8.38;2.85;;;;;;;16.50;76.68;101267.88;5034448;28;22036;-76
2022/10/05 17:40:59;;;;;;;6.20;3.10;;;;;;;16.48;77.50;101278.78;5038772;28;20029;-76
2022/10/05 17:43:25;;;;;;;6.97;3.60;;;;;;;16.52;77.15;101271.09;5043986;28;20523;-76
2022/10/05 17:45:57;;;;;;;5.72;3.30;;;;;;;16.50;77.25;101275.56;5024687;28;20108;-77